sensor_id;sensor_type;location;lat;lon;timestamp;P1;durP1;ratioP1;P2;durP2;ratioP2
46653;SDS011;38960;51.074;17.004;2023-02-26T00:01:00;5.20;;;2.37;;
46653;SDS011;38960;51.074;17.004;2023-02-26T00:03:25;7.23;;;2.43;;
46653;SDS011;38960;51.074;17.004;2023-02-26T00:05:51;3.80;;;2.20;;
46653;SDS011;38960;51.074;17.004;2023-02-26T00:08:16;5.40;;;2.80;;
46653;SDS011;38960;51.074;17.004;2023-02-26T00:10:42;4.63;;;2.50;;
46653;SDS011;38960;51.074;17.004;2023-02-26T00:13:08;5.83;;;2.20;;
46653;SDS011;38960;51.074;17.004;2023-02-26T00:15:35;5.80;;;2.10;;
46653;SDS011;38960;51.074;17.004;2023-02-26T00:18:03;4.57;;;2.23;;
46653;SDS011;38960;51.074;17.004;2023-02-26T00:20:31;6.37;;;2.60;;
46653;SDS011;38960;51.074;17.004;2023-02-26T00:22:57;3.83;;;2.00;;
46653;SDS011;38960;51.074;17.004;2023-02-26T00:25:23;3.73;;;2.13;;
46653;SDS011;38960;51.074;17.004;2023-02-26T00:27:49;5.13;;;2.40;;
46653;SDS011;38960;51.074;17.004;2023-02-26T00:30:15;4.50;;;2.17;;
46653;SDS011;38960;51.074;17.004;2023-02-26T00:32:41;4.77;;;2.20;;
46653;SDS011;38960;51.074;17.004;2023-02-26T00:35:07;3.70;;;1.73;;
46653;SDS011;38960;51.074;17.004;2023-02-26T00:37:51;5.43;;;1.67;;
46653;SDS011;38960;51.074;17.004;2023-02-26T00:42:53;3.72;;;2.20;;
46653;SDS011;38960;51.074;17.004;2023-02-26T00:45:19;3.73;;;1.70;;
46653;SDS011;38960;51.074;17.004;2023-02-26T00:55:16;3.93;;;2.10;;
46653;SDS011;38960;51.074;17.004;2023-02-26T00:57:42;3.83;;;1.80;;
46653;SDS011;38960;51.074;17.004;2023-02-26T01:00:08;5.87;;;1.77;;
46653;SDS011;38960;51.074;17.004;2023-02-26T01:02:36;3.03;;;1.60;;
46653;SDS011;38960;51.074;17.004;2023-02-26T01:05:02;2.83;;;1.40;;
46653;SDS011;38960;51.074;17.004;2023-02-26T01:07:28;2.73;;;1.83;;
46653;SDS011;38960;51.074;17.004;2023-02-26T01:10:00;2.20;;;1.30;;
46653;SDS011;38960;51.074;17.004;2023-02-26T01:12:26;4.63;;;2.00;;
46653;SDS011;38960;51.074;17.004;2023-02-26T01:14:51;3.30;;;1.70;;
46653;SDS011;38960;51.074;17.004;2023-02-26T01:17:27;2.97;;;2.10;;
46653;SDS011;38960;51.074;17.004;2023-02-26T01:20:00;3.03;;;1.90;;
46653;SDS011;38960;51.074;17.004;2023-02-26T01:22:36;3.33;;;1.70;;
46653;SDS011;38960;51.074;17.004;2023-02-26T01:25:06;2.90;;;1.50;;
46653;SDS011;38960;51.074;17.004;2023-02-26T01:27:38;4.20;;;1.47;;
46653;SDS011;38960;51.074;17.004;2023-02-26T01:30:04;3.53;;;1.80;;
46653;SDS011;38960;51.074;17.004;2023-02-26T01:38:00;3.77;;;1.70;;
46653;SDS011;38960;51.074;17.004;2023-02-26T01:41:30;5.32;;;2.13;;
46653;SDS011;38960;51.074;17.004;2023-02-26T01:43:34;2.63;;;1.63;;
46653;SDS011;38960;51.074;17.004;2023-02-26T02:04:27;4.80;;;2.20;;
46653;SDS011;38960;51.074;17.004;2023-02-26T02:06:55;4.10;;;1.87;;
46653;SDS011;38960;51.074;17.004;2023-02-26T02:09:20;5.03;;;2.20;;
46653;SDS011;38960;51.074;17.004;2023-02-26T02:14:40;6.57;;;2.77;;
46653;SDS011;38960;51.074;17.004;2023-02-26T02:17:09;5.00;;;2.60;;
46653;SDS011;38960;51.074;17.004;2023-02-26T02:20:03;4.20;;;1.90;;
46653;SDS011;38960;51.074;17.004;2023-02-26T02:22:55;3.77;;;2.00;;
46653;SDS011;38960;51.074;17.004;2023-02-26T02:31:12;4.63;;;2.07;;
46653;SDS011;38960;51.074;17.004;2023-02-26T02:34:03;6.88;;;2.55;;
46653;SDS011;38960;51.074;17.004;2023-02-26T02:36:37;5.40;;;2.50;;
46653;SDS011;38960;51.074;17.004;2023-02-26T02:39:09;3.73;;;2.10;;
46653;SDS011;38960;51.074;17.004;2023-02-26T02:44:27;4.37;;;2.10;;
46653;SDS011;38960;51.074;17.004;2023-02-26T02:46:55;4.50;;;1.97;;
46653;SDS011;38960;51.074;17.004;2023-02-26T02:51:58;3.47;;;1.97;;
46653;SDS011;38960;51.074;17.004;2023-02-26T02:57:05;3.43;;;1.90;;
46653;SDS011;38960;51.074;17.004;2023-02-26T02:59:42;4.57;;;2.10;;
46653;SDS011;38960;51.074;17.004;2023-02-26T03:04:41;4.13;;;2.33;;
46653;SDS011;38960;51.074;17.004;2023-02-26T03:07:06;4.40;;;1.90;;
46653;SDS011;38960;51.074;17.004;2023-02-26T03:09:32;4.20;;;2.23;;
46653;SDS011;38960;51.074;17.004;2023-02-26T03:11:58;4.00;;;1.97;;
46653;SDS011;38960;51.074;17.004;2023-02-26T03:14:24;2.60;;;1.67;;
46653;SDS011;38960;51.074;17.004;2023-02-26T03:22:27;3.88;;;1.80;;
46653;SDS011;38960;51.074;17.004;2023-02-26T03:25:11;3.60;;;1.23;;
46653;SDS011;38960;51.074;17.004;2023-02-26T03:36:09;2.27;;;1.43;;
46653;SDS011;38960;51.074;17.004;2023-02-26T03:41:19;3.13;;;1.40;;
46653;SDS011;38960;51.074;17.004;2023-02-26T03:43:59;4.60;;;1.40;;
46653;SDS011;38960;51.074;17.004;2023-02-26T03:46:34;3.40;;;1.53;;
46653;SDS011;38960;51.074;17.004;2023-02-26T03:49:03;1.57;;;1.03;;
46653;SDS011;38960;51.074;17.004;2023-02-26T03:51:38;3.73;;;1.80;;
46653;SDS011;38960;51.074;17.004;2023-02-26T03:54:25;2.40;;;1.30;;
46653;SDS011;38960;51.074;17.004;2023-02-26T03:57:12;2.27;;;1.70;;
46653;SDS011;38960;51.074;17.004;2023-02-26T03:59:57;4.23;;;1.90;;
46653;SDS011;38960;51.074;17.004;2023-02-26T04:02:44;3.58;;;1.80;;
46653;SDS011;38960;51.074;17.004;2023-02-26T04:05:24;4.93;;;1.90;;
46653;SDS011;38960;51.074;17.004;2023-02-26T04:07:51;3.80;;;1.80;;
46653;SDS011;38960;51.074;17.004;2023-02-26T04:10:20;3.60;;;1.13;;
46653;SDS011;38960;51.074;17.004;2023-02-26T04:12:49;2.80;;;1.40;;
46653;SDS011;38960;51.074;17.004;2023-02-26T04:15:14;3.80;;;1.50;;
46653;SDS011;38960;51.074;17.004;2023-02-26T04:17:40;2.73;;;1.40;;
46653;SDS011;38960;51.074;17.004;2023-02-26T04:20:07;3.83;;;1.37;;
46653;SDS011;38960;51.074;17.004;2023-02-26T04:22:37;3.63;;;1.40;;
46653;SDS011;38960;51.074;17.004;2023-02-26T04:25:03;2.63;;;1.37;;
46653;SDS011;38960;51.074;17.004;2023-02-26T04:27:29;3.00;;;1.50;;
46653;SDS011;38960;51.074;17.004;2023-02-26T04:29:54;2.80;;;1.30;;
46653;SDS011;38960;51.074;17.004;2023-02-26T04:32:20;1.77;;;1.30;;
46653;SDS011;38960;51.074;17.004;2023-02-26T04:34:46;1.60;;;1.30;;
46653;SDS011;38960;51.074;17.004;2023-02-26T04:37:15;4.80;;;1.40;;
46653;SDS011;38960;51.074;17.004;2023-02-26T04:39:41;3.33;;;1.50;;
46653;SDS011;38960;51.074;17.004;2023-02-26T04:42:08;2.53;;;1.30;;
46653;SDS011;38960;51.074;17.004;2023-02-26T04:44:34;3.53;;;1.63;;
46653;SDS011;38960;51.074;17.004;2023-02-26T04:47:00;3.40;;;1.50;;
46653;SDS011;38960;51.074;17.004;2023-02-26T04:49:26;3.07;;;1.50;;
46653;SDS011;38960;51.074;17.004;2023-02-26T04:51:52;2.43;;;1.30;;
46653;SDS011;38960;51.074;17.004;2023-02-26T04:54:18;2.63;;;1.80;;
46653;SDS011;38960;51.074;17.004;2023-02-26T04:56:43;2.33;;;1.47;;
46653;SDS011;38960;51.074;17.004;2023-02-26T04:59:09;2.70;;;1.27;;
46653;SDS011;38960;51.074;17.004;2023-02-26T05:01:35;3.53;;;1.30;;
46653;SDS011;38960;51.074;17.004;2023-02-26T05:04:03;2.07;;;1.43;;
46653;SDS011;38960;51.074;17.004;2023-02-26T05:06:29;3.37;;;1.10;;
46653;SDS011;38960;51.074;17.004;2023-02-26T05:08:54;1.73;;;1.10;;
46653;SDS011;38960;51.074;17.004;2023-02-26T05:11:20;2.03;;;1.20;;
46653;SDS011;38960;51.074;17.004;2023-02-26T05:13:46;1.67;;;1.23;;
46653;SDS011;38960;51.074;17.004;2023-02-26T05:16:12;2.63;;;1.17;;
46653;SDS011;38960;51.074;17.004;2023-02-26T05:18:37;2.43;;;1.23;;
46653;SDS011;38960;51.074;17.004;2023-02-26T05:21:03;2.27;;;1.63;;
46653;SDS011;38960;51.074;17.004;2023-02-26T05:23:30;2.67;;;1.20;;
46653;SDS011;38960;51.074;17.004;2023-02-26T05:25:56;2.90;;;1.20;;
46653;SDS011;38960;51.074;17.004;2023-02-26T05:28:23;1.67;;;1.17;;
46653;SDS011;38960;51.074;17.004;2023-02-26T05:30:49;2.87;;;1.40;;
46653;SDS011;38960;51.074;17.004;2023-02-26T05:33:15;2.80;;;1.37;;
46653;SDS011;38960;51.074;17.004;2023-02-26T05:35:40;1.97;;;1.20;;
46653;SDS011;38960;51.074;17.004;2023-02-26T05:38:06;1.60;;;1.03;;
46653;SDS011;38960;51.074;17.004;2023-02-26T05:40:31;2.17;;;1.10;;
46653;SDS011;38960;51.074;17.004;2023-02-26T05:42:57;1.63;;;1.23;;
46653;SDS011;38960;51.074;17.004;2023-02-26T05:45:22;1.87;;;1.20;;
46653;SDS011;38960;51.074;17.004;2023-02-26T05:47:48;2.60;;;1.30;;
46653;SDS011;38960;51.074;17.004;2023-02-26T05:50:13;2.60;;;1.30;;
46653;SDS011;38960;51.074;17.004;2023-02-26T05:52:39;2.03;;;1.20;;
46653;SDS011;38960;51.074;17.004;2023-02-26T05:55:05;3.67;;;1.60;;
46653;SDS011;38960;51.074;17.004;2023-02-26T05:57:31;2.80;;;1.10;;
46653;SDS011;38960;51.074;17.004;2023-02-26T05:59:57;2.83;;;1.37;;
46653;SDS011;38960;51.074;17.004;2023-02-26T06:02:22;4.50;;;1.20;;
46653;SDS011;38960;51.074;17.004;2023-02-26T06:04:48;2.90;;;1.47;;
46653;SDS011;38960;51.074;17.004;2023-02-26T06:07:13;4.87;;;1.97;;
46653;SDS011;38960;51.074;17.004;2023-02-26T06:09:39;3.83;;;1.60;;
46653;SDS011;38960;51.074;17.004;2023-02-26T06:12:05;4.00;;;1.50;;
46653;SDS011;38960;51.074;17.004;2023-02-26T06:14:31;2.30;;;1.30;;
46653;SDS011;38960;51.074;17.004;2023-02-26T06:16:57;3.00;;;2.10;;
46653;SDS011;38960;51.074;17.004;2023-02-26T06:19:22;2.00;;;1.00;;
46653;SDS011;38960;51.074;17.004;2023-02-26T06:21:48;2.87;;;0.97;;
46653;SDS011;38960;51.074;17.004;2023-02-26T06:24:13;2.70;;;1.30;;
46653;SDS011;38960;51.074;17.004;2023-02-26T06:26:39;4.13;;;1.47;;
46653;SDS011;38960;51.074;17.004;2023-02-26T06:29:05;2.73;;;1.20;;
46653;SDS011;38960;51.074;17.004;2023-02-26T06:31:30;4.50;;;1.33;;
46653;SDS011;38960;51.074;17.004;2023-02-26T06:33:56;1.70;;;1.10;;
46653;SDS011;38960;51.074;17.004;2023-02-26T06:36:21;3.07;;;1.20;;
46653;SDS011;38960;51.074;17.004;2023-02-26T06:38:47;2.20;;;1.33;;
46653;SDS011;38960;51.074;17.004;2023-02-26T06:41:12;3.73;;;1.83;;
46653;SDS011;38960;51.074;17.004;2023-02-26T06:43:38;2.03;;;1.30;;
46653;SDS011;38960;51.074;17.004;2023-02-26T06:46:04;1.87;;;1.17;;
46653;SDS011;38960;51.074;17.004;2023-02-26T06:48:30;2.93;;;1.40;;
46653;SDS011;38960;51.074;17.004;2023-02-26T06:50:55;4.43;;;1.90;;
46653;SDS011;38960;51.074;17.004;2023-02-26T06:53:21;1.90;;;1.03;;
46653;SDS011;38960;51.074;17.004;2023-02-26T06:55:48;4.40;;;1.50;;
46653;SDS011;38960;51.074;17.004;2023-02-26T06:58:14;4.33;;;1.50;;
46653;SDS011;38960;51.074;17.004;2023-02-26T07:00:40;2.80;;;1.40;;
46653;SDS011;38960;51.074;17.004;2023-02-26T07:03:06;4.87;;;2.00;;
46653;SDS011;38960;51.074;17.004;2023-02-26T07:05:33;4.73;;;1.70;;
46653;SDS011;38960;51.074;17.004;2023-02-26T07:07:59;4.33;;;1.30;;
46653;SDS011;38960;51.074;17.004;2023-02-26T07:10:24;3.30;;;1.93;;
46653;SDS011;38960;51.074;17.004;2023-02-26T07:12:50;3.47;;;1.27;;
46653;SDS011;38960;51.074;17.004;2023-02-26T07:15:16;1.83;;;1.20;;
46653;SDS011;38960;51.074;17.004;2023-02-26T07:17:42;3.23;;;1.20;;
46653;SDS011;38960;51.074;17.004;2023-02-26T07:20:08;2.50;;;1.40;;
46653;SDS011;38960;51.074;17.004;2023-02-26T07:22:37;3.40;;;1.73;;
46653;SDS011;38960;51.074;17.004;2023-02-26T07:25:03;4.73;;;1.40;;
46653;SDS011;38960;51.074;17.004;2023-02-26T07:27:30;1.53;;;1.20;;
46653;SDS011;38960;51.074;17.004;2023-02-26T07:29:57;1.70;;;1.20;;
46653;SDS011;38960;51.074;17.004;2023-02-26T07:32:23;3.67;;;1.47;;
46653;SDS011;38960;51.074;17.004;2023-02-26T07:34:49;2.37;;;1.30;;
46653;SDS011;38960;51.074;17.004;2023-02-26T07:37:15;3.20;;;1.27;;
46653;SDS011;38960;51.074;17.004;2023-02-26T07:39:41;3.67;;;1.43;;
46653;SDS011;38960;51.074;17.004;2023-02-26T07:42:06;2.53;;;1.33;;
46653;SDS011;38960;51.074;17.004;2023-02-26T07:44:33;2.37;;;1.50;;
46653;SDS011;38960;51.074;17.004;2023-02-26T07:46:59;2.20;;;1.30;;
46653;SDS011;38960;51.074;17.004;2023-02-26T07:49:25;2.07;;;1.30;;
46653;SDS011;38960;51.074;17.004;2023-02-26T07:51:50;2.17;;;1.17;;
46653;SDS011;38960;51.074;17.004;2023-02-26T07:54:16;2.23;;;1.50;;
46653;SDS011;38960;51.074;17.004;2023-02-26T07:56:41;4.10;;;1.70;;
46653;SDS011;38960;51.074;17.004;2023-02-26T07:59:07;3.33;;;1.60;;
46653;SDS011;38960;51.074;17.004;2023-02-26T08:01:34;3.87;;;1.90;;
46653;SDS011;38960;51.074;17.004;2023-02-26T08:04:00;3.93;;;1.80;;
46653;SDS011;38960;51.074;17.004;2023-02-26T08:06:26;3.37;;;2.00;;
46653;SDS011;38960;51.074;17.004;2023-02-26T08:08:52;2.70;;;1.70;;
46653;SDS011;38960;51.074;17.004;2023-02-26T08:11:18;4.10;;;2.13;;
46653;SDS011;38960;51.074;17.004;2023-02-26T08:13:43;2.90;;;1.83;;
46653;SDS011;38960;51.074;17.004;2023-02-26T08:16:09;3.00;;;1.40;;
46653;SDS011;38960;51.074;17.004;2023-02-26T08:18:35;3.20;;;1.50;;
46653;SDS011;38960;51.074;17.004;2023-02-26T08:21:00;3.40;;;1.50;;
46653;SDS011;38960;51.074;17.004;2023-02-26T08:23:26;2.77;;;1.23;;
46653;SDS011;38960;51.074;17.004;2023-02-26T08:25:59;4.17;;;1.83;;
46653;SDS011;38960;51.074;17.004;2023-02-26T08:28:28;4.53;;;1.80;;
46653;SDS011;38960;51.074;17.004;2023-02-26T08:30:54;3.90;;;1.87;;
46653;SDS011;38960;51.074;17.004;2023-02-26T08:33:20;4.07;;;2.00;;
46653;SDS011;38960;51.074;17.004;2023-02-26T08:35:46;4.27;;;1.80;;
46653;SDS011;38960;51.074;17.004;2023-02-26T08:38:12;4.90;;;1.97;;
46653;SDS011;38960;51.074;17.004;2023-02-26T08:40:38;2.73;;;1.70;;
46653;SDS011;38960;51.074;17.004;2023-02-26T08:43:03;3.13;;;1.40;;
46653;SDS011;38960;51.074;17.004;2023-02-26T08:45:29;3.03;;;1.50;;
46653;SDS011;38960;51.074;17.004;2023-02-26T08:47:54;2.60;;;1.40;;
46653;SDS011;38960;51.074;17.004;2023-02-26T08:50:20;2.23;;;1.13;;
46653;SDS011;38960;51.074;17.004;2023-02-26T08:52:46;2.20;;;1.50;;
46653;SDS011;38960;51.074;17.004;2023-02-26T08:55:12;3.07;;;1.57;;
46653;SDS011;38960;51.074;17.004;2023-02-26T08:57:37;2.47;;;1.67;;
46653;SDS011;38960;51.074;17.004;2023-02-26T09:00:04;4.27;;;1.80;;
46653;SDS011;38960;51.074;17.004;2023-02-26T09:02:34;2.35;;;1.30;;
46653;SDS011;38960;51.074;17.004;2023-02-26T09:05:03;3.23;;;1.73;;
46653;SDS011;38960;51.074;17.004;2023-02-26T09:07:30;4.73;;;1.57;;
46653;SDS011;38960;51.074;17.004;2023-02-26T09:09:56;6.30;;;2.03;;
46653;SDS011;38960;51.074;17.004;2023-02-26T09:12:21;4.37;;;1.60;;
46653;SDS011;38960;51.074;17.004;2023-02-26T09:14:47;5.00;;;2.10;;
46653;SDS011;38960;51.074;17.004;2023-02-26T09:17:13;3.80;;;1.90;;
46653;SDS011;38960;51.074;17.004;2023-02-26T09:19:38;4.40;;;1.80;;
46653;SDS011;38960;51.074;17.004;2023-02-26T09:22:04;3.30;;;1.87;;
46653;SDS011;38960;51.074;17.004;2023-02-26T09:24:30;4.87;;;1.80;;
46653;SDS011;38960;51.074;17.004;2023-02-26T09:26:55;3.67;;;2.03;;
46653;SDS011;38960;51.074;17.004;2023-02-26T09:29:21;3.83;;;2.00;;
46653;SDS011;38960;51.074;17.004;2023-02-26T09:31:46;4.10;;;2.10;;
46653;SDS011;38960;51.074;17.004;2023-02-26T09:34:12;3.93;;;1.90;;
46653;SDS011;38960;51.074;17.004;2023-02-26T09:37:17;6.00;;;2.23;;
46653;SDS011;38960;51.074;17.004;2023-02-26T09:39:43;4.47;;;2.47;;
46653;SDS011;38960;51.074;17.004;2023-02-26T09:44:46;5.60;;;2.03;;
46653;SDS011;38960;51.074;17.004;2023-02-26T09:47:18;3.37;;;1.60;;
46653;SDS011;38960;51.074;17.004;2023-02-26T09:49:55;3.03;;;1.60;;
46653;SDS011;38960;51.074;17.004;2023-02-26T09:52:27;3.97;;;1.87;;
46653;SDS011;38960;51.074;17.004;2023-02-26T09:54:59;3.87;;;1.67;;
46653;SDS011;38960;51.074;17.004;2023-02-26T09:57:30;4.03;;;1.70;;
46653;SDS011;38960;51.074;17.004;2023-02-26T09:59:58;6.90;;;2.27;;
46653;SDS011;38960;51.074;17.004;2023-02-26T10:02:38;3.67;;;1.90;;
46653;SDS011;38960;51.074;17.004;2023-02-26T10:05:22;3.00;;;1.60;;
46653;SDS011;38960;51.074;17.004;2023-02-26T10:07:57;4.20;;;2.17;;
46653;SDS011;38960;51.074;17.004;2023-02-26T10:10:44;6.20;;;3.20;;
46653;SDS011;38960;51.074;17.004;2023-02-26T10:13:47;4.20;;;1.67;;
46653;SDS011;38960;51.074;17.004;2023-02-26T10:16:20;5.45;;;3.08;;
46653;SDS011;38960;51.074;17.004;2023-02-26T10:19:03;4.40;;;1.83;;
46653;SDS011;38960;51.074;17.004;2023-02-26T10:21:51;3.17;;;2.00;;
46653;SDS011;38960;51.074;17.004;2023-02-26T10:24:25;5.43;;;2.43;;
46653;SDS011;38960;51.074;17.004;2023-02-26T10:27:04;4.00;;;2.13;;
46653;SDS011;38960;51.074;17.004;2023-02-26T10:29:34;4.77;;;2.17;;
46653;SDS011;38960;51.074;17.004;2023-02-26T10:32:19;6.37;;;2.90;;
46653;SDS011;38960;51.074;17.004;2023-02-26T10:35:14;4.65;;;2.58;;
46653;SDS011;38960;51.074;17.004;2023-02-26T10:38:01;4.50;;;2.17;;
46653;SDS011;38960;51.074;17.004;2023-02-26T10:43:00;4.50;;;2.23;;
46653;SDS011;38960;51.074;17.004;2023-02-26T10:45:45;4.20;;;2.33;;
46653;SDS011;38960;51.074;17.004;2023-02-26T10:48:27;5.13;;;1.97;;
46653;SDS011;38960;51.074;17.004;2023-02-26T10:51:09;4.53;;;2.50;;
46653;SDS011;38960;51.074;17.004;2023-02-26T10:53:37;6.67;;;1.90;;
46653;SDS011;38960;51.074;17.004;2023-02-26T10:58:40;4.87;;;2.20;;
46653;SDS011;38960;51.074;17.004;2023-02-26T11:01:13;2.73;;;1.73;;
46653;SDS011;38960;51.074;17.004;2023-02-26T11:03:42;3.40;;;1.60;;
46653;SDS011;38960;51.074;17.004;2023-02-26T11:06:10;7.73;;;2.40;;
46653;SDS011;38960;51.074;17.004;2023-02-26T11:08:41;4.07;;;2.33;;
46653;SDS011;38960;51.074;17.004;2023-02-26T11:11:08;5.00;;;2.27;;
46653;SDS011;38960;51.074;17.004;2023-02-26T11:13:36;4.63;;;2.03;;
46653;SDS011;38960;51.074;17.004;2023-02-26T11:16:09;5.40;;;2.80;;
46653;SDS011;38960;51.074;17.004;2023-02-26T11:18:41;4.30;;;2.20;;
46653;SDS011;38960;51.074;17.004;2023-02-26T11:21:15;4.07;;;2.10;;
46653;SDS011;38960;51.074;17.004;2023-02-26T11:23:43;5.63;;;2.10;;
46653;SDS011;38960;51.074;17.004;2023-02-26T11:26:15;6.37;;;2.00;;
46653;SDS011;38960;51.074;17.004;2023-02-26T11:28:43;7.18;;;2.60;;
46653;SDS011;38960;51.074;17.004;2023-02-26T11:31:15;4.97;;;1.70;;
46653;SDS011;38960;51.074;17.004;2023-02-26T11:33:43;4.07;;;1.63;;
46653;SDS011;38960;51.074;17.004;2023-02-26T11:36:11;4.27;;;1.83;;
46653;SDS011;38960;51.074;17.004;2023-02-26T11:38:40;3.73;;;1.53;;
46653;SDS011;38960;51.074;17.004;2023-02-26T11:41:10;4.30;;;1.90;;
46653;SDS011;38960;51.074;17.004;2023-02-26T11:43:41;4.37;;;2.00;;
46653;SDS011;38960;51.074;17.004;2023-02-26T11:46:08;3.37;;;1.80;;
46653;SDS011;38960;51.074;17.004;2023-02-26T11:48:41;3.67;;;2.40;;
46653;SDS011;38960;51.074;17.004;2023-02-26T11:51:10;6.47;;;2.77;;
46653;SDS011;38960;51.074;17.004;2023-02-26T11:53:57;4.77;;;2.37;;
46653;SDS011;38960;51.074;17.004;2023-02-26T11:59:05;6.40;;;2.97;;
46653;SDS011;38960;51.074;17.004;2023-02-26T12:01:52;3.67;;;2.20;;
46653;SDS011;38960;51.074;17.004;2023-02-26T12:04:19;5.57;;;2.40;;
46653;SDS011;38960;51.074;17.004;2023-02-26T12:06:48;4.07;;;2.20;;
46653;SDS011;38960;51.074;17.004;2023-02-26T12:09:14;4.50;;;1.80;;
46653;SDS011;38960;51.074;17.004;2023-02-26T12:11:49;6.77;;;2.00;;
46653;SDS011;38960;51.074;17.004;2023-02-26T12:17:30;2.37;;;1.40;;
46653;SDS011;38960;51.074;17.004;2023-02-26T12:45:42;5.57;;;3.10;;
46653;SDS011;38960;51.074;17.004;2023-02-26T12:51:12;7.00;;;2.83;;
46653;SDS011;38960;51.074;17.004;2023-02-26T12:56:32;5.40;;;3.20;;
46653;SDS011;38960;51.074;17.004;2023-02-26T13:04:12;13.70;;;2.70;;
46653;SDS011;38960;51.074;17.004;2023-02-26T13:12:41;7.10;;;3.10;;
46653;SDS011;38960;51.074;17.004;2023-02-26T13:15:47;7.37;;;3.60;;
46653;SDS011;38960;51.074;17.004;2023-02-26T13:21:09;6.73;;;3.13;;
46653;SDS011;38960;51.074;17.004;2023-02-26T13:23:53;6.30;;;2.80;;
46653;SDS011;38960;51.074;17.004;2023-02-26T13:26:20;4.90;;;2.10;;
46653;SDS011;38960;51.074;17.004;2023-02-26T13:28:54;8.53;;;2.30;;
46653;SDS011;38960;51.074;17.004;2023-02-26T13:31:33;5.00;;;2.10;;
46653;SDS011;38960;51.074;17.004;2023-02-26T13:34:02;5.90;;;2.30;;
46653;SDS011;38960;51.074;17.004;2023-02-26T13:36:31;2.67;;;1.70;;
46653;SDS011;38960;51.074;17.004;2023-02-26T13:45:06;5.70;;;2.10;;
46653;SDS011;38960;51.074;17.004;2023-02-26T13:47:51;5.50;;;2.10;;
46653;SDS011;38960;51.074;17.004;2023-02-26T13:50:25;2.80;;;1.40;;
46653;SDS011;38960;51.074;17.004;2023-02-26T13:55:50;5.60;;;2.00;;
46653;SDS011;38960;51.074;17.004;2023-02-26T14:08:49;5.37;;;2.30;;
46653;SDS011;38960;51.074;17.004;2023-02-26T14:13:42;5.87;;;2.60;;
46653;SDS011;38960;51.074;17.004;2023-02-26T14:19:39;7.43;;;2.53;;
46653;SDS011;38960;51.074;17.004;2023-02-26T14:27:39;6.23;;;2.60;;
46653;SDS011;38960;51.074;17.004;2023-02-26T14:35:24;7.73;;;2.20;;
46653;SDS011;38960;51.074;17.004;2023-02-26T14:37:59;8.30;;;2.95;;
46653;SDS011;38960;51.074;17.004;2023-02-26T14:40:28;5.97;;;2.40;;
46653;SDS011;38960;51.074;17.004;2023-02-26T14:42:57;4.83;;;2.00;;
46653;SDS011;38960;51.074;17.004;2023-02-26T14:48:07;5.13;;;2.10;;
46653;SDS011;38960;51.074;17.004;2023-02-26T15:01:48;4.83;;;2.60;;
46653;SDS011;38960;51.074;17.004;2023-02-26T15:20:13;5.23;;;2.87;;
46653;SDS011;38960;51.074;17.004;2023-02-26T15:23:05;8.23;;;3.20;;
46653;SDS011;38960;51.074;17.004;2023-02-26T15:25:38;6.77;;;3.43;;
46653;SDS011;38960;51.074;17.004;2023-02-26T15:28:08;5.37;;;2.50;;
46653;SDS011;38960;51.074;17.004;2023-02-26T15:30:36;5.57;;;2.20;;
46653;SDS011;38960;51.074;17.004;2023-02-26T15:33:03;9.67;;;2.90;;
46653;SDS011;38960;51.074;17.004;2023-02-26T15:35:30;5.67;;;2.53;;
46653;SDS011;38960;51.074;17.004;2023-02-26T15:37:58;7.77;;;3.00;;
46653;SDS011;38960;51.074;17.004;2023-02-26T15:40:26;5.40;;;2.53;;
46653;SDS011;38960;51.074;17.004;2023-02-26T15:42:54;5.77;;;2.53;;
46653;SDS011;38960;51.074;17.004;2023-02-26T15:45:22;4.63;;;2.77;;
46653;SDS011;38960;51.074;17.004;2023-02-26T15:48:00;2.77;;;1.60;;
46653;SDS011;38960;51.074;17.004;2023-02-26T15:50:30;5.83;;;1.83;;
46653;SDS011;38960;51.074;17.004;2023-02-26T15:52:59;6.63;;;1.97;;
46653;SDS011;38960;51.074;17.004;2023-02-26T15:55:27;5.80;;;2.90;;
46653;SDS011;38960;51.074;17.004;2023-02-26T15:57:56;7.63;;;2.23;;
46653;SDS011;38960;51.074;17.004;2023-02-26T16:00:22;6.13;;;2.50;;
46653;SDS011;38960;51.074;17.004;2023-02-26T16:02:54;6.97;;;2.83;;
46653;SDS011;38960;51.074;17.004;2023-02-26T16:07:52;5.60;;;3.03;;
46653;SDS011;38960;51.074;17.004;2023-02-26T16:12:57;12.07;;;5.17;;
46653;SDS011;38960;51.074;17.004;2023-02-26T16:15:34;10.03;;;5.37;;
46653;SDS011;38960;51.074;17.004;2023-02-26T16:18:03;10.97;;;5.33;;
46653;SDS011;38960;51.074;17.004;2023-02-26T16:20:33;10.20;;;4.53;;
46653;SDS011;38960;51.074;17.004;2023-02-26T16:23:15;9.88;;;5.70;;
46653;SDS011;38960;51.074;17.004;2023-02-26T16:25:58;10.05;;;4.28;;
46653;SDS011;38960;51.074;17.004;2023-02-26T16:28:36;9.10;;;3.97;;
46653;SDS011;38960;51.074;17.004;2023-02-26T16:31:14;14.00;;;6.00;;
46653;SDS011;38960;51.074;17.004;2023-02-26T16:36:23;19.47;;;11.20;;
46653;SDS011;38960;51.074;17.004;2023-02-26T16:38:56;17.37;;;9.40;;
46653;SDS011;38960;51.074;17.004;2023-02-26T16:41:35;21.37;;;8.93;;
46653;SDS011;38960;51.074;17.004;2023-02-26T16:44:03;13.43;;;5.93;;
46653;SDS011;38960;51.074;17.004;2023-02-26T16:52:02;14.43;;;5.67;;
46653;SDS011;38960;51.074;17.004;2023-02-26T16:54:35;10.07;;;5.00;;
46653;SDS011;38960;51.074;17.004;2023-02-26T16:57:03;9.70;;;5.07;;
46653;SDS011;38960;51.074;17.004;2023-02-26T16:59:31;13.37;;;5.33;;
46653;SDS011;38960;51.074;17.004;2023-02-26T17:02:00;13.60;;;5.37;;
46653;SDS011;38960;51.074;17.004;2023-02-26T17:04:35;9.13;;;4.67;;
46653;SDS011;38960;51.074;17.004;2023-02-26T17:07:01;10.93;;;4.90;;
46653;SDS011;38960;51.074;17.004;2023-02-26T17:09:37;12.50;;;6.40;;
46653;SDS011;38960;51.074;17.004;2023-02-26T17:12:23;16.47;;;7.87;;
46653;SDS011;38960;51.074;17.004;2023-02-26T17:15:01;16.47;;;7.97;;
46653;SDS011;38960;51.074;17.004;2023-02-26T17:17:27;10.90;;;6.97;;
46653;SDS011;38960;51.074;17.004;2023-02-26T17:19:52;12.83;;;6.47;;
46653;SDS011;38960;51.074;17.004;2023-02-26T17:22:20;20.60;;;10.70;;
46653;SDS011;38960;51.074;17.004;2023-02-26T17:24:51;22.57;;;13.63;;
46653;SDS011;38960;51.074;17.004;2023-02-26T17:27:27;22.60;;;13.30;;
46653;SDS011;38960;51.074;17.004;2023-02-26T17:29:55;21.67;;;11.17;;
46653;SDS011;38960;51.074;17.004;2023-02-26T17:32:22;20.30;;;10.67;;
46653;SDS011;38960;51.074;17.004;2023-02-26T17:34:51;20.50;;;9.93;;
46653;SDS011;38960;51.074;17.004;2023-02-26T17:37:17;16.53;;;9.47;;
46653;SDS011;38960;51.074;17.004;2023-02-26T17:39:44;16.03;;;8.00;;
46653;SDS011;38960;51.074;17.004;2023-02-26T17:42:10;14.23;;;7.63;;
46653;SDS011;38960;51.074;17.004;2023-02-26T17:44:36;15.53;;;6.67;;
46653;SDS011;38960;51.074;17.004;2023-02-26T17:47:02;17.63;;;7.53;;
46653;SDS011;38960;51.074;17.004;2023-02-26T17:49:28;13.67;;;6.70;;
46653;SDS011;38960;51.074;17.004;2023-02-26T17:51:53;11.07;;;6.10;;
46653;SDS011;38960;51.074;17.004;2023-02-26T17:54:19;12.37;;;6.20;;
46653;SDS011;38960;51.074;17.004;2023-02-26T17:56:44;14.40;;;6.73;;
46653;SDS011;38960;51.074;17.004;2023-02-26T17:59:10;14.47;;;7.03;;
46653;SDS011;38960;51.074;17.004;2023-02-26T18:01:37;14.90;;;6.47;;
46653;SDS011;38960;51.074;17.004;2023-02-26T18:04:03;18.33;;;7.83;;
46653;SDS011;38960;51.074;17.004;2023-02-26T18:06:33;17.53;;;7.27;;
46653;SDS011;38960;51.074;17.004;2023-02-26T18:09:01;13.73;;;6.70;;
46653;SDS011;38960;51.074;17.004;2023-02-26T18:11:29;16.30;;;7.57;;
46653;SDS011;38960;51.074;17.004;2023-02-26T18:13:54;14.93;;;7.60;;
46653;SDS011;38960;51.074;17.004;2023-02-26T18:16:22;13.73;;;7.17;;